createdAt,value
2023-02-02T00:01:30.035Z,101175.47
2023-02-02T00:03:58.332Z,101175.34
2023-02-02T00:06:28.536Z,101178.09
2023-02-02T00:08:59.294Z,101177.75
2023-02-02T00:11:27.607Z,101172.31
2023-02-02T00:13:55.627Z,101172.22
2023-02-02T00:16:37.331Z,101176.78
2023-02-02T00:19:07.537Z,101174.00
2023-02-02T00:21:35.844Z,101175.56
2023-02-02T00:24:05.658Z,101181.59
2023-02-02T00:26:33.577Z,101181.72
2023-02-02T00:29:01.383Z,101187.47
2023-02-02T00:31:29.387Z,101191.81
2023-02-02T00:33:57.250Z,101187.47
2023-02-02T00:36:25.094Z,101182.31
2023-02-02T00:38:53.560Z,101187.84
2023-02-02T00:41:22.608Z,101177.16
2023-02-02T00:44:10.605Z,101189.41
2023-02-02T00:46:39.308Z,101184.47
2023-02-02T00:49:07.378Z,101183.50
2023-02-02T00:51:36.785Z,101186.16
2023-02-02T00:54:05.448Z,101181.09
2023-02-02T00:56:34.612Z,101187.13
2023-02-02T00:59:02.285Z,101184.59
2023-02-02T01:01:30.291Z,101182.91
2023-02-02T01:03:58.892Z,101183.88
2023-02-02T01:06:26.935Z,101182.91
2023-02-02T01:08:55.003Z,101194.09
2023-02-02T01:11:22.699Z,101188.81
2023-02-02T01:13:51.656Z,101195.78
2023-02-02T01:16:22.310Z,101194.78
2023-02-02T01:18:50.487Z,101198.44
2023-02-02T01:21:18.361Z,101197.09
2023-02-02T01:23:46.086Z,101202.16
2023-02-02T01:26:14.676Z,101204.19
2023-02-02T01:28:42.654Z,101194.06
2023-02-02T01:31:13.595Z,101193.97
2023-02-02T01:33:41.750Z,101194.09
2023-02-02T01:36:12.839Z,101192.03
2023-02-02T01:38:42.143Z,101195.78
2023-02-02T01:41:14.473Z,101199.41
2023-02-02T01:43:55.337Z,101205.88
2023-02-02T01:46:26.996Z,101204.81
2023-02-02T01:49:00.742Z,101208.28
2023-02-02T01:51:42.338Z,101203.47
2023-02-02T01:54:22.789Z,101211.78
2023-02-02T01:56:55.757Z,101200.34
2023-02-02T01:59:24.703Z,101205.38
2023-02-02T02:01:55.029Z,101203.00
2023-02-02T02:04:25.113Z,101201.09
2023-02-02T02:06:53.646Z,101204.47
2023-02-02T02:09:21.529Z,101200.47
2023-02-02T02:11:49.232Z,101206.50
2023-02-02T02:14:35.385Z,101207.94
2023-02-02T02:17:15.996Z,101203.00
2023-02-02T02:20:48.888Z,101203.47
2023-02-02T02:24:06.611Z,101210.44
2023-02-02T02:26:53.027Z,101212.50
2023-02-02T02:29:53.572Z,101202.03
2023-02-02T02:32:33.763Z,101211.53
2023-02-02T02:35:11.921Z,101207.78
2023-02-02T02:37:47.705Z,101191.44
2023-02-02T02:40:23.700Z,101207.22
2023-02-02T02:42:55.392Z,101214.31
2023-02-02T02:45:25.253Z,101208.03
2023-02-02T02:47:55.580Z,101211.78
2023-02-02T02:50:23.689Z,101211.06
2023-02-02T02:52:58.635Z,101215.63
2023-02-02T02:55:29.981Z,101216.22
2023-02-02T02:58:07.782Z,101214.06
2023-02-02T03:00:48.407Z,101209.59
2023-02-02T03:03:28.354Z,101221.41
2023-02-02T03:06:03.284Z,101207.91
2023-02-02T03:08:34.689Z,101200.69
2023-02-02T03:11:05.782Z,101201.53
2023-02-02T03:13:34.477Z,101204.81
2023-02-02T03:16:02.904Z,101211.66
2023-02-02T03:18:34.818Z,101215.00
2023-02-02T03:21:03.084Z,101226.09
2023-02-02T03:23:30.962Z,101226.94
2023-02-02T03:25:59.813Z,101214.44
2023-02-02T03:28:28.683Z,101219.34
2023-02-02T03:30:59.035Z,101220.06
2023-02-02T03:33:27.140Z,101214.66
2023-02-02T03:35:56.271Z,101213.59
2023-02-02T03:38:24.291Z,101211.91
2023-02-02T03:40:52.573Z,101211.41
2023-02-02T03:43:24.172Z,101214.16
2023-02-02T03:45:57.599Z,101206.50
2023-02-02T03:48:25.493Z,101223.78
2023-02-02T03:50:53.418Z,101220.06
2023-02-02T03:53:23.487Z,101215.50
2023-02-02T03:55:51.266Z,101224.63
2023-02-02T03:58:22.155Z,101233.06
2023-02-02T04:00:49.931Z,101225.13
2023-02-02T04:03:17.561Z,101229.69
2023-02-02T04:05:45.226Z,101229.69
2023-02-02T04:08:12.903Z,101233.31
2023-02-02T04:10:43.182Z,101231.97
2023-02-02T04:13:10.816Z,101236.31
2023-02-02T04:15:38.422Z,101234.25
2023-02-02T04:18:06.224Z,101235.09
2023-02-02T04:20:33.891Z,101235.72
2023-02-02T04:23:01.552Z,101236.19
2023-02-02T04:25:29.282Z,101237.16
2023-02-02T04:27:58.286Z,101233.78
2023-02-02T04:30:25.933Z,101241.84
2023-02-02T04:32:53.508Z,101230.88
2023-02-02T04:35:21.144Z,101242.09
2023-02-02T04:37:48.724Z,101238.59
2023-02-02T04:40:16.552Z,101236.91
2023-02-02T04:42:45.244Z,101243.16
2023-02-02T04:45:14.349Z,101239.31
2023-02-02T04:47:41.983Z,101236.19
2023-02-02T04:50:12.045Z,101233.41
2023-02-02T04:52:39.627Z,101235.69
2023-02-02T04:55:07.887Z,101233.53
2023-02-02T04:57:35.499Z,101236.19
2023-02-02T05:00:03.187Z,101244.25
2023-02-02T05:02:32.167Z,101251.59
2023-02-02T05:04:59.811Z,101252.06
2023-02-02T05:07:27.589Z,101258.31
2023-02-02T05:09:55.253Z,101261.47
2023-02-02T05:12:22.812Z,101264.97
2023-02-02T05:14:50.490Z,101264.00
2023-02-02T05:17:18.105Z,101266.75
2023-02-02T05:19:47.121Z,101268.19
2023-02-02T05:22:14.779Z,101263.88
2023-02-02T05:24:42.472Z,101264.00
2023-02-02T05:27:10.315Z,101270.13
2023-02-02T05:29:38.001Z,101282.41
2023-02-02T05:32:05.929Z,101276.63
2023-02-02T05:34:33.804Z,101278.78
2023-02-02T05:37:03.305Z,101294.31
2023-02-02T05:39:31.551Z,101294.91
2023-02-02T05:41:59.230Z,101289.28
2023-02-02T05:44:26.912Z,101299.00
2023-02-02T05:46:54.714Z,101308.50
2023-02-02T05:49:22.408Z,101308.50
2023-02-02T05:51:52.959Z,101298.28
2023-02-02T05:54:21.936Z,101308.38
2023-02-02T05:56:50.858Z,101317.03
2023-02-02T05:59:19.184Z,101313.66
2023-02-02T06:01:47.250Z,101325.47
2023-02-02T06:04:15.750Z,101320.53
2023-02-02T06:06:43.988Z,101318.75
2023-02-02T06:09:11.760Z,101313.19
2023-02-02T06:11:40.967Z,101318.63
2023-02-02T06:14:08.694Z,101319.69
2023-02-02T06:16:36.453Z,101312.72
2023-02-02T06:19:04.318Z,101320.66
2023-02-02T06:21:32.430Z,101329.66
2023-02-02T06:24:02.061Z,101338.34
2023-02-02T06:26:29.758Z,101329.44
2023-02-02T06:28:58.858Z,101338.97
2023-02-02T06:31:26.611Z,101339.44
2023-02-02T06:33:56.483Z,101330.66
2023-02-02T06:36:25.828Z,101332.22
2023-02-02T06:38:54.979Z,101337.97
2023-02-02T06:41:23.053Z,101340.63
2023-02-02T06:43:51.785Z,101346.66
2023-02-02T06:46:20.934Z,101332.94
2023-02-02T06:48:48.607Z,101329.56
2023-02-02T06:51:16.311Z,101326.81
2023-02-02T06:53:45.105Z,101328.22
2023-02-02T06:56:13.996Z,101335.00
2023-02-02T06:58:42.276Z,101326.09
2023-02-02T07:01:12.553Z,101328.47
2023-02-02T07:03:42.328Z,101323.91
2023-02-02T07:06:15.085Z,101313.94
2023-02-02T07:08:43.221Z,101317.03
2023-02-02T07:11:15.580Z,101321.38
2023-02-02T07:13:44.455Z,101316.91
2023-02-02T07:16:13.831Z,101326.94
2023-02-02T07:18:43.886Z,101330.28
2023-02-02T07:21:18.137Z,101337.16
2023-02-02T07:23:45.815Z,101346.78
2023-02-02T07:26:14.743Z,101354.25
2023-02-02T07:28:42.995Z,101356.91
2023-02-02T07:31:15.553Z,101348.97
2023-02-02T07:33:46.443Z,101356.53
2023-02-02T07:36:17.245Z,101359.41
2023-02-02T07:38:45.274Z,101355.69
2023-02-02T07:41:13.407Z,101364.47
2023-02-02T07:43:41.286Z,101367.13
2023-02-02T07:46:12.833Z,101352.31
2023-02-02T07:48:40.852Z,101346.91
2023-02-02T07:51:12.796Z,101352.19
2023-02-02T07:53:45.826Z,101353.16
2023-02-02T07:56:15.247Z,101348.81
2023-02-02T07:58:44.189Z,101351.34
2023-02-02T08:01:14.083Z,101359.06
2023-02-02T08:03:42.801Z,101370.72
2023-02-02T08:06:15.431Z,101370.00
2023-02-02T08:08:43.116Z,101379.63
2023-02-02T08:11:12.049Z,101390.47
2023-02-02T08:13:40.328Z,101387.56
2023-02-02T08:16:08.896Z,101376.03
2023-02-02T08:18:37.315Z,101376.75
2023-02-02T08:21:08.358Z,101373.13
2023-02-02T08:23:38.165Z,101371.56
2023-02-02T08:26:12.892Z,101366.91
2023-02-02T08:28:41.585Z,101367.25
2023-02-02T08:31:11.006Z,101369.50
2023-02-02T08:33:39.747Z,101375.31
2023-02-02T08:36:12.352Z,101376.28
2023-02-02T08:38:41.802Z,101359.88
2023-02-02T08:41:12.250Z,101366.97
2023-02-02T08:43:40.689Z,101375.53
2023-02-02T08:46:10.568Z,101389.88
2023-02-02T08:48:38.953Z,101393.59
2023-02-02T08:51:08.275Z,101396.25
2023-02-02T08:53:36.040Z,101404.31
2023-02-02T08:56:07.439Z,101411.91
2023-02-02T08:58:35.968Z,101407.56
2023-02-02T09:01:08.208Z,101412.59
2023-02-02T09:03:38.888Z,101411.19
2023-02-02T09:06:08.068Z,101403.69
2023-02-02T09:08:36.246Z,101415.13
2023-02-02T09:11:07.478Z,101399.13
2023-02-02T09:13:35.185Z,101393.34
2023-02-02T09:16:03.357Z,101391.94
2023-02-02T09:18:31.412Z,101393.63
2023-02-02T09:21:01.244Z,101401.31
2023-02-02T09:23:31.042Z,101413.59
2023-02-02T09:25:58.909Z,101410.59
2023-02-02T09:28:27.889Z,101414.19
2023-02-02T09:30:55.646Z,101411.22
2023-02-02T09:33:24.174Z,101411.78
2023-02-02T09:35:51.907Z,101400.59
2023-02-02T09:38:19.514Z,101407.44
2023-02-02T09:40:47.344Z,101408.28
2023-02-02T09:43:30.826Z,101413.34
2023-02-02T09:46:11.212Z,101418.88
2023-02-02T09:48:47.144Z,101424.41
2023-02-02T09:51:19.774Z,101419.38
2023-02-02T09:53:55.713Z,101414.78
2023-02-02T09:56:51.187Z,101418.03
2023-02-02T09:59:24.590Z,101418.16
2023-02-02T10:01:57.122Z,101411.78
2023-02-02T10:04:32.743Z,101431.41
2023-02-02T10:07:08.652Z,101421.31
2023-02-02T10:09:44.483Z,101424.41
2023-02-02T10:12:26.198Z,101439.63
2023-02-02T10:15:00.764Z,101451.81
2023-02-02T10:17:40.047Z,101452.50
2023-02-02T10:20:22.123Z,101457.66
2023-02-02T10:22:51.649Z,101459.13
2023-02-02T10:25:23.594Z,101467.06
2023-02-02T10:28:07.231Z,101460.34
2023-02-02T10:30:47.333Z,101462.50
2023-02-02T10:33:29.328Z,101463.44
2023-02-02T10:36:06.609Z,101472.88
2023-02-02T10:38:40.425Z,101461.53
2023-02-02T10:41:19.898Z,101453.91
2023-02-02T10:44:10.026Z,101458.38
2023-02-02T10:46:41.942Z,101447.75
2023-02-02T10:49:23.822Z,101445.34
2023-02-02T10:52:01.101Z,101449.06
2023-02-02T10:54:57.845Z,101438.53
2023-02-02T10:57:54.770Z,101441.78
2023-02-02T11:00:27.077Z,101441.88
2023-02-02T11:02:56.084Z,101442.84
2023-02-02T11:05:45.060Z,101442.53
2023-02-02T11:08:15.752Z,101449.63
2023-02-02T11:10:45.228Z,101429.88
2023-02-02T11:13:18.275Z,101431.19
2023-02-02T11:15:46.010Z,101428.28
2023-02-02T11:18:16.343Z,101432.59
2023-02-02T11:20:46.683Z,101435.25
2023-02-02T11:23:19.629Z,101426.88
2023-02-02T11:25:57.556Z,101426.66
2023-02-02T11:28:30.279Z,101432.81
2023-02-02T11:31:02.335Z,101435.81
2023-02-02T11:33:33.132Z,101435.72
2023-02-02T11:36:04.955Z,101437.25
2023-02-02T11:38:33.043Z,101438.34
2023-02-02T11:41:03.862Z,101443.56
2023-02-02T11:43:34.601Z,101434.91
2023-02-02T11:46:04.446Z,101433.75
2023-02-02T11:48:36.620Z,101443.09
2023-02-02T11:51:08.818Z,101427.22
2023-02-02T11:53:43.582Z,101426.84
2023-02-02T11:56:19.860Z,101431.22
2023-02-02T11:58:49.290Z,101421.75
2023-02-02T12:01:26.640Z,101414.81
2023-02-02T12:03:55.416Z,101426.56
2023-02-02T12:06:26.373Z,101428.38
2023-02-02T12:08:59.271Z,101426.13
2023-02-02T12:11:43.860Z,101416.09
2023-02-02T12:14:27.471Z,101419.16
2023-02-02T12:17:07.153Z,101426.09
2023-02-02T12:20:14.704Z,101430.34
2023-02-02T12:23:11.130Z,101422.28
2023-02-02T12:26:02.687Z,101420.56
2023-02-02T12:28:46.651Z,101413.97
2023-02-02T12:31:22.279Z,101418.59
2023-02-02T12:34:00.996Z,101427.25
2023-02-02T12:36:47.857Z,101432.16
2023-02-02T12:39:32.489Z,101427.53
2023-02-02T12:42:24.519Z,101419.72
2023-02-02T12:45:12.894Z,101409.22
2023-02-02T12:47:51.165Z,101411.91
2023-02-02T12:50:30.996Z,101396.44
2023-02-02T12:53:24.408Z,101404.16
2023-02-02T12:56:02.252Z,101414.25
2023-02-02T12:58:38.941Z,101412.84
2023-02-02T13:01:19.687Z,101415.06
2023-02-02T13:04:01.406Z,101418.00
2023-02-02T13:06:54.871Z,101421.81
2023-02-02T13:09:29.593Z,101422.09
2023-02-02T13:12:04.306Z,101426.72
2023-02-02T13:14:36.556Z,101418.91
2023-02-02T13:17:10.817Z,101415.38
2023-02-02T13:19:42.712Z,101417.59
2023-02-02T13:22:19.937Z,101424.06
2023-02-02T13:24:50.886Z,101424.50
2023-02-02T13:27:22.617Z,101427.56
2023-02-02T13:29:55.052Z,101436.28
2023-02-02T13:32:27.646Z,101432.63
2023-02-02T13:35:00.286Z,101435.00
2023-02-02T13:37:37.196Z,101432.22
2023-02-02T13:40:16.620Z,101432.03
2023-02-02T13:42:50.675Z,101434.56
2023-02-02T13:45:37.033Z,101431.38
2023-02-02T13:48:15.756Z,101427.31
2023-02-02T13:50:54.798Z,101430.38
2023-02-02T13:53:42.649Z,101430.22
2023-02-02T13:56:38.813Z,101436.13
2023-02-02T13:59:19.806Z,101428.00
2023-02-02T14:01:52.657Z,101427.72
2023-02-02T14:04:23.587Z,101436.81
2023-02-02T14:06:57.358Z,101434.56
2023-02-02T14:09:28.923Z,101434.56
2023-02-02T14:12:00.587Z,101434.28
2023-02-02T14:14:35.105Z,101447.00
2023-02-02T14:17:07.047Z,101442.38
2023-02-02T14:19:55.299Z,101444.34
2023-02-02T14:22:44.500Z,101449.91
2023-02-02T14:26:00.455Z,101462.50
2023-02-02T14:28:51.903Z,101453.38
2023-02-02T14:31:43.364Z,101460.34
2023-02-02T14:34:34.028Z,101450.78
2023-02-02T14:37:36.836Z,101447.16
2023-02-02T14:40:26.130Z,101455.81
2023-02-02T14:43:22.061Z,101452.91
2023-02-02T14:46:10.792Z,101451.31
2023-02-02T14:48:41.299Z,101453.97
2023-02-02T14:51:17.375Z,101457.88
2023-02-02T14:53:50.625Z,101466.25
2023-02-02T14:56:19.096Z,101473.41
2023-02-02T14:58:55.732Z,101476.88
2023-02-02T15:01:26.700Z,101480.91
2023-02-02T15:03:57.957Z,101492.41
2023-02-02T15:06:30.495Z,101494.03
2023-02-02T15:09:36.749Z,101494.28
2023-02-02T15:12:30.410Z,101501.06
2023-02-02T15:15:08.107Z,101509.31
2023-02-02T15:17:48.407Z,101522.13
2023-02-02T15:20:25.338Z,101530.34
2023-02-02T15:22:58.276Z,101531.59
2023-02-02T15:25:31.406Z,101526.53
2023-02-02T15:28:03.880Z,101528.47
2023-02-02T15:30:34.366Z,101555.31
2023-02-02T15:33:07.531Z,101537.59
2023-02-02T15:35:38.267Z,101545.69
2023-02-02T15:38:08.545Z,101557.03
2023-02-02T15:40:38.371Z,101555.09
2023-02-02T15:43:09.273Z,101571.75
2023-02-02T15:45:45.433Z,101573.69
2023-02-02T15:48:25.843Z,101580.09
2023-02-02T15:50:56.245Z,101580.69
2023-02-02T15:53:27.644Z,101577.88
2023-02-02T15:55:57.379Z,101581.19
2023-02-02T15:58:31.857Z,101595.94
2023-02-02T16:01:02.903Z,101599.09
2023-02-02T16:03:36.085Z,101614.06
2023-02-02T16:06:07.754Z,101612.94
2023-02-02T16:08:39.798Z,101626.16
2023-02-02T16:11:10.985Z,101634.34
2023-02-02T16:13:40.259Z,101639.78
2023-02-02T16:16:22.887Z,101633.63
2023-02-02T16:19:07.250Z,101636.28
2023-02-02T16:21:39.591Z,101640.63
2023-02-02T16:24:15.195Z,101656.19
2023-02-02T16:26:43.355Z,101657.91
2023-02-02T16:29:16.912Z,101651.59
2023-02-02T16:31:45.623Z,101669.38
2023-02-02T16:34:17.976Z,101670.78
2023-02-02T16:37:05.281Z,101666.22
2023-02-02T16:39:32.963Z,101673.22
2023-02-02T16:42:10.336Z,101678.28
2023-02-02T16:44:42.972Z,101679.47
2023-02-02T16:47:37.707Z,101680.47
2023-02-02T16:50:32.216Z,101672.13
2023-02-02T16:53:04.397Z,101670.81
2023-02-02T16:55:49.185Z,101674.44
2023-02-02T16:58:20.981Z,101670.31
2023-02-02T17:01:08.769Z,101677.31
2023-02-02T17:03:49.368Z,101676.38
2023-02-02T17:06:17.109Z,101679.25
2023-02-02T17:08:46.203Z,101686.97
2023-02-02T17:11:23.387Z,101675.50
2023-02-02T17:13:51.870Z,101687.06
2023-02-02T17:16:21.815Z,101693.97
2023-02-02T17:18:49.749Z,101693.59
2023-02-02T17:21:20.698Z,101687.22
2023-02-02T17:23:51.766Z,101701.34
2023-02-02T17:26:19.614Z,101716.16
2023-02-02T17:28:47.825Z,101714.13
2023-02-02T17:31:17.371Z,101716.03
2023-02-02T17:33:45.152Z,101723.16
2023-02-02T17:36:14.190Z,101733.41
2023-02-02T17:38:42.042Z,101727.13
2023-02-02T17:41:14.132Z,101717.13
2023-02-02T17:43:42.901Z,101715.41
2023-02-02T17:46:12.970Z,101714.94
2023-02-02T17:48:40.761Z,101713.72
2023-02-02T17:51:15.065Z,101712.78
2023-02-02T17:53:42.883Z,101730.50
2023-02-02T17:56:11.988Z,101724.22
2023-02-02T17:58:39.670Z,101726.03
2023-02-02T18:01:08.405Z,101729.97
2023-02-02T18:03:38.377Z,101726.22
2023-02-02T18:06:06.542Z,101723.94
2023-02-02T18:08:34.843Z,101723.84
2023-02-02T18:11:02.667Z,101726.72
2023-02-02T18:13:31.913Z,101723.31
2023-02-02T18:16:00.026Z,101730.78
2023-02-02T18:18:29.712Z,101737.16
2023-02-02T18:20:58.947Z,101737.31
2023-02-02T18:23:26.704Z,101737.69
2023-02-02T18:25:54.376Z,101742.03
2023-02-02T18:28:22.156Z,101746.50
2023-02-02T18:30:51.284Z,101743.09
2023-02-02T18:33:19.964Z,101747.59
2023-02-02T18:35:49.072Z,101751.31
2023-02-02T18:38:17.977Z,101742.41
2023-02-02T18:40:45.761Z,101749.50
2023-02-02T18:43:13.488Z,101755.88
2023-02-02T18:45:41.203Z,101755.25
2023-02-02T18:48:10.169Z,101750.09
2023-02-02T18:50:37.866Z,101749.34
2023-02-02T18:53:07.511Z,101752.00
2023-02-02T18:55:35.168Z,101758.47
2023-02-02T18:58:02.868Z,101756.09
2023-02-02T19:00:30.583Z,101759.69
2023-02-02T19:02:58.307Z,101759.69
2023-02-02T19:05:45.135Z,101767.19
2023-02-02T19:08:12.812Z,101764.47
2023-02-02T19:10:40.527Z,101751.63
2023-02-02T19:13:18.106Z,101747.38
2023-02-02T19:15:48.345Z,101752.91
2023-02-02T19:18:17.788Z,101756.31
2023-02-02T19:20:47.577Z,101757.38
2023-02-02T19:23:16.865Z,101748.03
2023-02-02T19:25:47.056Z,101763.94
2023-02-02T19:28:23.115Z,101763.75
2023-02-02T19:30:52.946Z,101774.13
2023-02-02T19:33:21.302Z,101776.03
2023-02-02T19:35:53.118Z,101771.34
2023-02-02T19:38:21.257Z,101766.53
2023-02-02T19:40:49.075Z,101774.38
2023-02-02T19:43:25.612Z,101782.22
2023-02-02T19:45:54.230Z,101772.59
2023-02-02T19:48:25.877Z,101779.00
2023-02-02T19:50:55.973Z,101770.41
2023-02-02T19:53:28.238Z,101773.06
2023-02-02T19:55:55.993Z,101767.13
2023-02-02T19:58:25.198Z,101768.22
2023-02-02T20:00:54.810Z,101764.38
2023-02-02T20:03:25.170Z,101759.56
2023-02-02T20:05:57.473Z,101774.63
2023-02-02T20:08:28.840Z,101763.06
2023-02-02T20:11:00.620Z,101766.91
2023-02-02T20:14:09.699Z,101778.69
2023-02-02T20:16:42.622Z,101774.78
2023-02-02T20:19:18.176Z,101774.38
2023-02-02T20:21:51.040Z,101774.38
2023-02-02T20:24:22.807Z,101777.28
2023-02-02T20:26:51.578Z,101768.81
2023-02-02T20:29:22.316Z,101776.88
2023-02-02T20:31:51.289Z,101781.47
2023-02-02T20:34:25.126Z,101784.31
2023-02-02T20:36:58.780Z,101787.44
2023-02-02T20:39:34.233Z,101799.47
2023-02-02T20:42:03.186Z,101802.22
2023-02-02T20:44:32.536Z,101798.03
2023-02-02T20:47:01.199Z,101800.97
2023-02-02T20:49:31.768Z,101807.03
2023-02-02T20:52:03.600Z,101809.13
2023-02-02T20:54:32.424Z,101807.84
2023-02-02T20:57:00.153Z,101810.38
2023-02-02T20:59:28.024Z,101808.94
2023-02-02T21:01:56.011Z,101799.19
2023-02-02T21:04:23.859Z,101800.63
2023-02-02T21:06:51.731Z,101812.94
2023-02-02T21:09:21.435Z,101804.25
2023-02-02T21:11:49.110Z,101811.13
2023-02-02T21:14:16.751Z,101805.94
2023-02-02T21:16:44.623Z,101803.19
2023-02-02T21:19:13.328Z,101809.44
2023-02-02T21:21:41.126Z,101817.06
2023-02-02T21:24:09.241Z,101815.47
2023-02-02T21:26:38.295Z,101820.78
2023-02-02T21:29:06.001Z,101818.97
2023-02-02T21:31:35.359Z,101819.72
2023-02-02T21:34:03.413Z,101807.78
2023-02-02T21:36:34.785Z,101803.81
2023-02-02T21:39:16.338Z,101808.84
2023-02-02T21:41:45.535Z,101818.44
2023-02-02T21:44:15.328Z,101808.59
2023-02-02T21:46:43.473Z,101811.97
2023-02-02T21:49:24.018Z,101808.25
2023-02-02T21:51:52.901Z,101812.47
2023-02-02T21:54:26.179Z,101806.69
2023-02-02T21:56:55.833Z,101800.97
2023-02-02T21:59:25.670Z,101810.19
2023-02-02T22:01:53.706Z,101808.09
2023-02-02T22:04:24.070Z,101802.13
2023-02-02T22:06:53.926Z,101805.22
2023-02-02T22:09:23.897Z,101797.19
2023-02-02T22:11:56.028Z,101801.28
2023-02-02T22:14:28.355Z,101791.41
2023-02-02T22:16:58.689Z,101783.69
2023-02-02T22:19:30.533Z,101786.56
2023-02-02T22:22:13.059Z,101771.53
2023-02-02T22:24:41.004Z,101768.22
2023-02-02T22:27:19.839Z,101773.66
2023-02-02T22:29:49.713Z,101764.69
2023-02-02T22:32:17.385Z,101774.22
2023-02-02T22:34:45.012Z,101763.81
2023-02-02T22:37:12.778Z,101765.03
2023-02-02T22:39:42.668Z,101766.72
2023-02-02T22:42:10.740Z,101774.44
2023-02-02T22:44:38.492Z,101776.13
2023-02-02T22:47:07.560Z,101781.66
2023-02-02T22:49:35.369Z,101775.53
2023-02-02T22:52:02.981Z,101779.63
2023-02-02T22:54:31.194Z,101776.97
2023-02-02T22:56:58.831Z,101782.66
2023-02-02T22:59:26.494Z,101785.41
2023-02-02T23:01:54.159Z,101777.25
2023-02-02T23:04:23.231Z,101780.84
2023-02-02T23:06:50.873Z,101788.34
2023-02-02T23:09:18.533Z,101797.50
2023-02-02T23:11:48.593Z,101800.63
2023-02-02T23:14:16.993Z,101814.34
2023-02-02T23:16:44.656Z,101801.19
2023-02-02T23:19:12.355Z,101803.84
2023-02-02T23:21:42.269Z,101801.84
2023-02-02T23:24:10.089Z,101812.56
2023-02-02T23:26:37.731Z,101808.00
2023-02-02T23:29:05.378Z,101818.19
2023-02-02T23:31:33.167Z,101827.78
2023-02-02T23:34:00.849Z,101825.16
2023-02-02T23:36:28.484Z,101822.50
2023-02-02T23:38:57.456Z,101819.75
2023-02-02T23:41:25.206Z,101815.53
2023-02-02T23:43:53.131Z,101805.75
2023-02-02T23:46:21.000Z,101800.31
2023-02-02T23:48:48.835Z,101790.41
2023-02-02T23:51:16.664Z,101793.81
2023-02-02T23:53:44.865Z,101801.66
2023-02-02T23:56:13.898Z,101796.38
2023-02-02T23:58:41.634Z,101808.75
